createdAt,value
2017-12-31T00:01:42.495Z,11.80
2017-12-31T00:04:10.035Z,11.80
2017-12-31T00:06:38.315Z,11.80
2017-12-31T00:09:06.604Z,11.80
2017-12-31T00:11:34.143Z,11.80
2017-12-31T00:14:02.444Z,11.80
2017-12-31T00:16:29.977Z,11.70
2017-12-31T00:18:57.517Z,11.80
2017-12-31T00:21:25.057Z,11.80
2017-12-31T00:23:52.585Z,11.80
2017-12-31T00:26:20.127Z,11.80
2017-12-31T00:28:47.937Z,11.80
2017-12-31T00:31:15.451Z,11.80
2017-12-31T00:33:43.770Z,11.80
2017-12-31T00:36:11.287Z,11.80
2017-12-31T00:38:39.586Z,11.80
2017-12-31T00:41:07.123Z,11.80
2017-12-31T00:43:35.417Z,11.90
2017-12-31T00:46:02.951Z,11.80
2017-12-31T00:48:31.255Z,11.80
2017-12-31T00:50:58.770Z,11.80
2017-12-31T00:53:26.291Z,11.90
2017-12-31T00:55:53.840Z,11.80
2017-12-31T00:58:21.373Z,11.80
2017-12-31T01:00:48.906Z,11.80
2017-12-31T01:03:16.457Z,11.80
2017-12-31T01:05:44.779Z,11.90
2017-12-31T01:08:12.305Z,11.80
2017-12-31T01:10:41.800Z,11.80
2017-12-31T01:13:10.222Z,11.80
2017-12-31T01:15:37.752Z,11.80
2017-12-31T01:18:06.390Z,11.70
2017-12-31T01:20:33.903Z,11.70
2017-12-31T01:23:02.529Z,11.70
2017-12-31T01:25:30.081Z,11.70
2017-12-31T01:27:57.598Z,11.70
2017-12-31T01:30:25.893Z,11.80
2017-12-31T01:32:53.441Z,11.70
2017-12-31T01:35:21.736Z,11.80
2017-12-31T01:37:49.251Z,11.80
2017-12-31T01:40:17.079Z,11.80
2017-12-31T01:42:44.609Z,11.80
2017-12-31T01:45:12.140Z,11.80
2017-12-31T01:47:40.458Z,11.80
2017-12-31T01:50:07.975Z,11.80
2017-12-31T01:52:36.269Z,11.80
2017-12-31T01:55:04.587Z,11.80
2017-12-31T01:57:32.116Z,11.70
2017-12-31T01:59:59.631Z,11.80
2017-12-31T02:02:27.251Z,11.70
2017-12-31T02:04:54.821Z,11.70
2017-12-31T02:07:22.344Z,11.80
2017-12-31T02:09:50.664Z,11.70
2017-12-31T02:12:18.180Z,11.70
2017-12-31T02:14:45.725Z,11.60
2017-12-31T02:17:14.261Z,11.50
2017-12-31T02:19:41.779Z,11.50
2017-12-31T02:22:09.313Z,11.60
2017-12-31T02:24:37.627Z,11.50
2017-12-31T02:27:05.278Z,11.50
2017-12-31T02:29:32.869Z,11.50
2017-12-31T02:32:00.403Z,11.50
2017-12-31T02:34:27.920Z,11.50
2017-12-31T02:36:56.221Z,11.50
2017-12-31T02:39:24.611Z,11.50
2017-12-31T02:41:52.139Z,11.50
2017-12-31T02:44:19.655Z,11.60
2017-12-31T02:46:47.209Z,11.60
2017-12-31T02:49:14.725Z,11.60
2017-12-31T02:51:43.025Z,11.60
2017-12-31T02:54:10.615Z,11.60
2017-12-31T02:56:38.132Z,11.60
2017-12-31T02:59:05.650Z,11.60
2017-12-31T03:01:33.182Z,11.60
2017-12-31T03:04:00.699Z,11.60
2017-12-31T03:06:29.007Z,11.60
2017-12-31T03:08:56.573Z,11.60
2017-12-31T03:11:24.098Z,11.60
2017-12-31T03:13:51.618Z,11.70
2017-12-31T03:16:19.168Z,11.70
2017-12-31T03:18:46.682Z,11.60
2017-12-31T03:21:14.226Z,11.60
2017-12-31T03:23:42.527Z,11.60
2017-12-31T03:26:10.061Z,11.60
2017-12-31T03:28:38.352Z,11.60
2017-12-31T03:31:05.902Z,11.60
2017-12-31T03:33:33.437Z,11.50
2017-12-31T03:36:00.955Z,11.40
2017-12-31T03:38:28.499Z,11.30
2017-12-31T03:40:56.029Z,11.20
2017-12-31T03:43:24.339Z,11.20
2017-12-31T03:45:51.878Z,11.10
2017-12-31T03:48:19.416Z,11.20
2017-12-31T03:50:47.713Z,11.20
2017-12-31T03:53:15.254Z,11.20
2017-12-31T03:55:43.543Z,11.20
2017-12-31T03:58:11.073Z,11.20
2017-12-31T04:00:38.657Z,11.20
2017-12-31T04:03:06.953Z,11.20
2017-12-31T04:05:34.741Z,11.20
2017-12-31T04:08:02.321Z,11.20
2017-12-31T04:10:31.364Z,11.20
2017-12-31T04:12:59.121Z,11.20
2017-12-31T04:15:26.659Z,11.20
2017-12-31T04:17:54.939Z,11.20
2017-12-31T04:20:23.225Z,11.20
2017-12-31T04:22:51.541Z,11.20
2017-12-31T04:25:19.073Z,11.20
2017-12-31T04:27:46.604Z,11.20
2017-12-31T04:30:14.920Z,11.30
2017-12-31T04:32:42.452Z,11.30
2017-12-31T04:35:10.753Z,11.30
2017-12-31T04:37:38.302Z,11.30
2017-12-31T04:40:05.820Z,11.30
2017-12-31T04:42:33.352Z,11.40
2017-12-31T04:45:00.895Z,11.40
2017-12-31T04:47:28.425Z,11.40
2017-12-31T04:49:56.725Z,11.40
2017-12-31T04:52:24.281Z,11.30
2017-12-31T04:54:51.799Z,11.40
2017-12-31T04:57:20.087Z,11.30
2017-12-31T04:59:48.405Z,11.30
2017-12-31T05:02:15.932Z,11.30
2017-12-31T05:04:43.447Z,11.30
2017-12-31T05:07:10.996Z,11.30
2017-12-31T05:09:38.852Z,11.30
2017-12-31T05:12:06.372Z,11.30
2017-12-31T05:14:33.925Z,11.30
2017-12-31T05:17:02.203Z,11.30
2017-12-31T05:19:30.486Z,11.30
2017-12-31T05:21:58.045Z,11.30
2017-12-31T05:24:25.567Z,11.30
2017-12-31T05:26:53.097Z,11.30
2017-12-31T05:29:20.646Z,11.30
2017-12-31T05:31:48.159Z,11.30
2017-12-31T05:34:16.454Z,11.30
2017-12-31T05:36:44.013Z,11.30
2017-12-31T05:39:11.541Z,11.30
2017-12-31T05:41:39.057Z,11.30
2017-12-31T05:44:06.605Z,11.30
2017-12-31T05:46:34.137Z,11.30
2017-12-31T05:49:02.466Z,11.40
2017-12-31T05:51:30.007Z,11.30
2017-12-31T05:53:57.524Z,11.40
2017-12-31T05:56:25.810Z,11.40
2017-12-31T05:58:54.128Z,11.40
2017-12-31T06:01:21.651Z,11.30
2017-12-31T06:03:49.181Z,11.30
2017-12-31T06:06:16.718Z,11.30
2017-12-31T06:08:44.255Z,11.30
2017-12-31T06:11:12.023Z,11.30
2017-12-31T06:13:39.565Z,11.30
2017-12-31T06:16:07.079Z,11.30
2017-12-31T06:18:34.595Z,11.30
2017-12-31T06:21:02.151Z,11.30
2017-12-31T06:23:29.680Z,11.30
2017-12-31T06:25:57.217Z,11.30
2017-12-31T06:28:24.751Z,11.30
2017-12-31T06:30:52.267Z,11.30
2017-12-31T06:33:19.836Z,11.40
2017-12-31T06:35:47.389Z,11.40
2017-12-31T06:38:14.907Z,11.40
2017-12-31T06:40:42.426Z,11.40
2017-12-31T06:43:09.963Z,11.40
2017-12-31T06:45:37.502Z,11.50
2017-12-31T06:48:05.801Z,11.50
2017-12-31T06:50:33.336Z,11.40
2017-12-31T06:53:01.633Z,11.50
2017-12-31T06:55:29.165Z,11.50
2017-12-31T06:57:57.485Z,11.50
2017-12-31T07:00:25.017Z,11.50
2017-12-31T07:02:52.575Z,11.50
2017-12-31T07:05:20.148Z,11.50
2017-12-31T07:07:47.664Z,11.50
2017-12-31T07:10:15.197Z,11.50
2017-12-31T07:12:42.731Z,11.50
2017-12-31T07:15:10.248Z,11.50
2017-12-31T07:17:38.545Z,11.60
2017-12-31T07:20:06.106Z,11.60
2017-12-31T07:22:33.630Z,11.60
2017-12-31T07:25:01.461Z,11.60
2017-12-31T07:27:29.110Z,11.60
2017-12-31T07:29:56.645Z,11.70
2017-12-31T07:32:24.241Z,11.70
2017-12-31T07:34:52.119Z,11.70
2017-12-31T07:37:20.575Z,11.70
2017-12-31T07:39:48.105Z,11.70
2017-12-31T07:42:16.425Z,11.70
2017-12-31T07:44:43.957Z,11.70
2017-12-31T07:47:11.483Z,11.70
2017-12-31T07:49:39.782Z,11.80
2017-12-31T07:52:07.303Z,11.80
2017-12-31T07:54:34.850Z,11.80
2017-12-31T07:57:02.379Z,11.80
2017-12-31T07:59:30.869Z,11.80
2017-12-31T08:01:58.382Z,11.70
2017-12-31T08:04:26.815Z,11.80
2017-12-31T08:06:54.365Z,11.80
2017-12-31T08:09:22.127Z,11.80
2017-12-31T08:11:49.663Z,11.80
2017-12-31T08:14:17.197Z,11.90
2017-12-31T08:16:45.482Z,11.90
2017-12-31T08:19:14.106Z,11.90
2017-12-31T08:21:41.619Z,11.90
2017-12-31T08:24:09.923Z,11.90
2017-12-31T08:26:37.485Z,11.90
2017-12-31T08:29:05.011Z,12.00
2017-12-31T08:31:33.309Z,12.00
2017-12-31T08:34:00.847Z,12.00
2017-12-31T08:36:29.127Z,12.00
2017-12-31T08:38:57.407Z,12.00
2017-12-31T08:41:25.729Z,12.00
2017-12-31T08:43:53.247Z,12.00
2017-12-31T08:46:20.762Z,12.00
2017-12-31T08:48:48.304Z,12.10
2017-12-31T08:51:15.837Z,12.10
2017-12-31T08:53:43.355Z,12.20
2017-12-31T08:56:10.895Z,12.20
2017-12-31T08:58:39.454Z,12.20
2017-12-31T09:01:06.988Z,12.30
2017-12-31T09:03:34.531Z,12.30
2017-12-31T09:06:02.853Z,12.30
2017-12-31T09:08:30.385Z,12.30
2017-12-31T09:10:57.947Z,12.40
2017-12-31T09:13:25.480Z,12.40
2017-12-31T09:15:53.763Z,12.40
2017-12-31T09:18:22.081Z,12.50
2017-12-31T09:20:49.607Z,12.50
2017-12-31T09:23:17.405Z,12.60
2017-12-31T09:25:44.970Z,12.70
2017-12-31T09:28:12.501Z,12.80
2017-12-31T09:30:40.034Z,12.80
2017-12-31T09:33:08.353Z,12.80
2017-12-31T09:35:35.899Z,12.70
2017-12-31T09:38:03.427Z,12.80
2017-12-31T09:40:31.727Z,12.70
2017-12-31T09:42:59.255Z,12.70
2017-12-31T09:45:27.549Z,12.70
2017-12-31T09:47:55.102Z,12.70
2017-12-31T09:50:23.388Z,12.80
2017-12-31T09:52:50.910Z,12.80
2017-12-31T09:55:18.443Z,12.80
2017-12-31T09:57:45.959Z,12.60
2017-12-31T10:00:13.498Z,12.60
2017-12-31T10:02:41.817Z,12.60
2017-12-31T10:05:09.332Z,12.50
2017-12-31T10:07:37.628Z,12.60
2017-12-31T10:10:05.184Z,12.60
2017-12-31T10:12:32.717Z,12.50
2017-12-31T10:15:00.999Z,12.50
2017-12-31T10:17:29.313Z,12.50
2017-12-31T10:19:56.865Z,12.50
2017-12-31T10:22:24.389Z,12.50
2017-12-31T10:24:51.927Z,12.60
2017-12-31T10:27:19.457Z,12.60
2017-12-31T10:29:46.989Z,12.60
2017-12-31T10:32:14.598Z,12.70
2017-12-31T10:34:42.149Z,12.70
2017-12-31T10:37:09.903Z,12.70
2017-12-31T10:39:37.438Z,12.70
2017-12-31T10:42:04.969Z,12.70
2017-12-31T10:44:33.291Z,12.70
2017-12-31T10:47:00.837Z,12.70
2017-12-31T10:49:28.363Z,12.70
2017-12-31T10:51:57.024Z,12.80
2017-12-31T10:54:25.794Z,12.80
2017-12-31T10:56:53.385Z,12.80
2017-12-31T10:59:21.817Z,12.80
2017-12-31T11:01:49.372Z,12.80
2017-12-31T11:04:16.909Z,12.80
2017-12-31T11:06:44.462Z,12.90
2017-12-31T11:09:12.771Z,12.90
2017-12-31T11:11:40.370Z,12.90
2017-12-31T11:14:07.893Z,12.90
2017-12-31T11:16:35.824Z,13.00
2017-12-31T11:19:03.390Z,13.00
2017-12-31T11:21:31.198Z,13.00
2017-12-31T11:23:58.968Z,13.00
2017-12-31T11:26:27.342Z,13.00
2017-12-31T11:28:55.157Z,13.00
2017-12-31T11:31:23.462Z,13.20
2017-12-31T11:33:50.989Z,13.10
2017-12-31T11:36:18.531Z,13.20
2017-12-31T11:38:46.076Z,13.20
2017-12-31T11:41:13.608Z,13.30
2017-12-31T11:43:41.142Z,13.40
2017-12-31T11:46:08.694Z,13.50
2017-12-31T11:48:36.245Z,13.50
2017-12-31T11:51:04.539Z,13.50
2017-12-31T11:53:32.350Z,13.50
2017-12-31T11:56:00.661Z,13.50
2017-12-31T11:58:28.963Z,13.60
2017-12-31T12:00:56.499Z,13.60
2017-12-31T12:03:24.085Z,13.60
2017-12-31T12:05:51.599Z,13.80
2017-12-31T12:08:19.927Z,14.20
2017-12-31T12:10:47.486Z,14.20
2017-12-31T12:13:15.009Z,14.40
2017-12-31T12:15:43.327Z,14.40
2017-12-31T12:18:10.873Z,14.30
2017-12-31T12:20:38.399Z,14.20
2017-12-31T12:23:06.720Z,14.00
2017-12-31T12:25:34.265Z,14.00
2017-12-31T12:28:01.802Z,13.90
2017-12-31T12:30:29.339Z,13.80
2017-12-31T12:32:57.670Z,13.70
2017-12-31T12:35:25.201Z,13.70
2017-12-31T12:37:52.769Z,13.60
2017-12-31T12:40:20.291Z,13.60
2017-12-31T12:42:48.588Z,13.60
2017-12-31T12:45:16.145Z,13.60
2017-12-31T12:47:44.423Z,13.60
2017-12-31T12:50:12.749Z,13.60
2017-12-31T12:52:40.697Z,13.60
2017-12-31T12:55:08.255Z,13.50
2017-12-31T12:57:36.136Z,13.60
2017-12-31T13:00:05.222Z,13.60
2017-12-31T13:02:33.040Z,13.60
2017-12-31T13:05:01.467Z,13.70
2017-12-31T13:07:29.786Z,13.70
2017-12-31T13:09:57.317Z,13.70
2017-12-31T13:12:25.083Z,13.80
2017-12-31T13:14:52.641Z,13.80
2017-12-31T13:17:20.176Z,13.80
2017-12-31T13:19:47.717Z,13.80
2017-12-31T13:22:15.269Z,13.90
2017-12-31T13:24:43.071Z,13.80
2017-12-31T13:27:10.601Z,13.80
2017-12-31T13:29:38.161Z,13.80
2017-12-31T13:32:05.678Z,13.80
2017-12-31T13:34:33.214Z,13.80
2017-12-31T13:37:01.683Z,13.80
2017-12-31T13:39:29.221Z,13.80
2017-12-31T13:41:56.749Z,13.90
2017-12-31T13:44:25.059Z,13.90
2017-12-31T13:46:52.606Z,13.90
2017-12-31T13:49:20.184Z,13.90
2017-12-31T13:51:47.738Z,14.20
2017-12-31T13:54:15.254Z,14.50
2017-12-31T13:56:43.921Z,15.00
2017-12-31T13:59:11.460Z,15.00
2017-12-31T14:01:38.979Z,15.10
2017-12-31T14:04:06.503Z,15.10
2017-12-31T14:06:34.081Z,15.30
2017-12-31T14:09:02.364Z,15.40
2017-12-31T14:11:29.921Z,15.40
2017-12-31T14:13:58.223Z,15.30
2017-12-31T14:16:25.805Z,15.30
2017-12-31T14:18:53.322Z,15.30
2017-12-31T14:21:20.859Z,15.20
2017-12-31T14:23:49.977Z,15.20
2017-12-31T14:26:18.633Z,15.10
2017-12-31T14:28:46.870Z,15.10
2017-12-31T14:31:14.383Z,14.90
2017-12-31T14:33:41.903Z,14.80
2017-12-31T14:36:09.455Z,14.60
2017-12-31T14:38:36.978Z,14.60
2017-12-31T14:41:04.504Z,14.50
2017-12-31T14:43:32.058Z,14.40
2017-12-31T14:45:59.593Z,14.40
2017-12-31T14:48:27.115Z,14.30
2017-12-31T14:50:54.655Z,14.20
2017-12-31T14:53:22.942Z,14.00
2017-12-31T14:55:50.503Z,13.90
2017-12-31T14:58:18.315Z,13.90
2017-12-31T15:00:45.847Z,13.80
2017-12-31T15:03:13.377Z,13.70
2017-12-31T15:05:40.989Z,13.70
2017-12-31T15:08:08.531Z,13.60
2017-12-31T15:10:36.070Z,13.60
2017-12-31T15:13:03.642Z,13.50
2017-12-31T15:15:31.171Z,13.50
2017-12-31T15:17:58.699Z,13.40
2017-12-31T15:20:27.252Z,13.40
2017-12-31T15:22:54.794Z,13.30
2017-12-31T15:25:22.461Z,13.20
2017-12-31T15:27:50.010Z,13.20
2017-12-31T15:30:17.527Z,13.10
2017-12-31T15:32:45.824Z,13.00
2017-12-31T15:35:14.149Z,13.00
2017-12-31T15:37:41.779Z,13.00
2017-12-31T15:40:09.300Z,12.90
2017-12-31T15:42:36.834Z,12.90
2017-12-31T15:45:04.355Z,12.90
2017-12-31T15:47:31.875Z,12.80
2017-12-31T15:49:59.455Z,12.80
2017-12-31T15:52:26.985Z,12.70
2017-12-31T15:54:55.283Z,12.60
2017-12-31T15:57:23.590Z,12.60
2017-12-31T15:59:51.367Z,12.60
2017-12-31T16:02:18.897Z,12.60
2017-12-31T16:04:46.975Z,12.60
2017-12-31T16:07:14.514Z,12.40
2017-12-31T16:09:42.799Z,12.40
2017-12-31T16:12:10.353Z,12.30
2017-12-31T16:14:38.763Z,12.30
2017-12-31T16:17:06.305Z,12.20
2017-12-31T16:19:34.510Z,12.30
2017-12-31T16:22:02.057Z,12.20
2017-12-31T16:24:29.875Z,12.20
2017-12-31T16:26:57.698Z,12.20
2017-12-31T16:29:25.222Z,12.10
2017-12-31T16:31:52.753Z,12.10
2017-12-31T16:34:21.073Z,12.10
2017-12-31T16:36:48.587Z,12.10
2017-12-31T16:39:16.894Z,12.10
2017-12-31T16:41:44.453Z,12.10
2017-12-31T16:44:11.977Z,12.10
2017-12-31T16:46:39.509Z,12.00
2017-12-31T16:49:07.365Z,12.00
2017-12-31T16:51:34.901Z,12.00
2017-12-31T16:54:02.415Z,12.00
2017-12-31T16:56:29.955Z,11.90
2017-12-31T16:58:57.485Z,11.90
2017-12-31T17:01:25.003Z,11.90
2017-12-31T17:03:53.303Z,11.90
2017-12-31T17:06:20.852Z,11.90
2017-12-31T17:08:48.383Z,11.90
2017-12-31T17:11:15.951Z,11.90
2017-12-31T17:13:44.265Z,11.90
2017-12-31T17:16:11.791Z,11.90
2017-12-31T17:18:40.121Z,11.80
2017-12-31T17:21:07.657Z,11.80
2017-12-31T17:23:35.171Z,11.70
2017-12-31T17:26:02.761Z,11.90
2017-12-31T17:28:30.305Z,11.90
2017-12-31T17:30:58.605Z,11.70
2017-12-31T17:33:26.162Z,11.70
2017-12-31T17:35:53.693Z,11.70
2017-12-31T17:38:21.975Z,11.70
2017-12-31T17:40:50.279Z,11.50
2017-12-31T17:43:17.814Z,11.50
2017-12-31T17:45:45.362Z,11.40
2017-12-31T17:48:13.686Z,11.40
2017-12-31T17:50:41.198Z,11.40
2017-12-31T17:53:09.510Z,11.50
2017-12-31T17:55:37.061Z,11.50
2017-12-31T17:58:04.601Z,11.50
2017-12-31T18:00:33.029Z,11.40
2017-12-31T18:03:00.570Z,11.30
2017-12-31T18:05:28.343Z,11.20
2017-12-31T18:07:55.873Z,11.10
2017-12-31T18:10:23.667Z,11.00
2017-12-31T18:12:51.234Z,11.00
2017-12-31T18:15:19.018Z,10.90
2017-12-31T18:17:46.575Z,10.90
2017-12-31T18:20:14.113Z,10.90
2017-12-31T18:22:41.627Z,10.80
2017-12-31T18:25:09.935Z,10.70
2017-12-31T18:27:37.464Z,10.70
2017-12-31T18:30:04.999Z,10.70
2017-12-31T18:32:32.557Z,10.80
2017-12-31T18:35:00.082Z,10.60
2017-12-31T18:37:27.601Z,10.60
2017-12-31T18:39:55.173Z,10.70
2017-12-31T18:42:22.705Z,10.60
2017-12-31T18:44:51.237Z,10.30
2017-12-31T18:47:18.785Z,10.30
2017-12-31T18:49:46.312Z,10.40
2017-12-31T18:52:14.596Z,10.30
2017-12-31T18:54:42.145Z,10.30
2017-12-31T18:57:10.432Z,10.20
2017-12-31T18:59:37.981Z,10.20
2017-12-31T19:02:06.297Z,10.10
2017-12-31T19:04:33.825Z,10.10
2017-12-31T19:07:01.343Z,10.00
2017-12-31T19:09:30.976Z,9.90
2017-12-31T19:11:59.273Z,9.90
2017-12-31T19:14:26.786Z,9.90
2017-12-31T19:16:54.352Z,9.80
2017-12-31T19:19:21.877Z,9.80
2017-12-31T19:21:49.405Z,9.80
2017-12-31T19:24:16.936Z,9.80
2017-12-31T19:26:45.234Z,10.10
2017-12-31T19:29:12.766Z,10.10
2017-12-31T19:31:40.384Z,10.10
2017-12-31T19:34:07.903Z,10.20
2017-12-31T19:36:36.201Z,10.20
2017-12-31T19:39:03.738Z,10.20
2017-12-31T19:41:32.022Z,10.20
2017-12-31T19:43:59.558Z,10.20
2017-12-31T19:46:27.878Z,10.10
2017-12-31T19:48:55.591Z,10.10
2017-12-31T19:51:23.144Z,10.10
2017-12-31T19:53:50.685Z,10.10
2017-12-31T19:56:18.225Z,10.00
2017-12-31T19:58:45.743Z,10.00
2017-12-31T20:01:14.049Z,10.00
2017-12-31T20:03:41.584Z,10.00
2017-12-31T20:06:09.116Z,10.00
2017-12-31T20:08:37.419Z,10.10
2017-12-31T20:11:05.719Z,10.10
2017-12-31T20:13:33.238Z,10.10
2017-12-31T20:16:01.541Z,10.10
2017-12-31T20:18:29.060Z,10.10
2017-12-31T20:20:56.582Z,10.20
2017-12-31T20:23:24.132Z,10.20
2017-12-31T20:25:51.660Z,10.20
2017-12-31T20:28:20.006Z,10.10
2017-12-31T20:30:47.542Z,10.10
2017-12-31T20:33:15.081Z,10.20
2017-12-31T20:35:42.612Z,10.30
2017-12-31T20:38:10.934Z,10.20
2017-12-31T20:40:38.454Z,10.20
2017-12-31T20:43:05.969Z,10.10
2017-12-31T20:45:34.291Z,10.10
2017-12-31T20:48:01.871Z,10.10
2017-12-31T20:50:29.405Z,10.20
2017-12-31T20:52:56.947Z,10.20
2017-12-31T20:55:25.242Z,10.30
2017-12-31T20:57:52.775Z,10.30
2017-12-31T21:00:20.329Z,10.30
2017-12-31T21:02:48.616Z,10.30
2017-12-31T21:05:16.151Z,10.30
2017-12-31T21:07:43.706Z,10.30
2017-12-31T21:10:11.223Z,10.40
2017-12-31T21:12:38.747Z,10.30
2017-12-31T21:15:07.052Z,10.30
2017-12-31T21:17:34.585Z,10.30
2017-12-31T21:20:03.120Z,10.30
2017-12-31T21:22:30.673Z,10.30
2017-12-31T21:24:58.445Z,10.40
2017-12-31T21:27:25.966Z,10.40
2017-12-31T21:29:53.516Z,10.40
2017-12-31T21:32:21.813Z,10.40
2017-12-31T21:34:49.328Z,10.40
2017-12-31T21:37:16.878Z,10.50
2017-12-31T21:39:44.418Z,10.50
2017-12-31T21:42:11.939Z,10.60
2017-12-31T21:44:39.475Z,10.60
2017-12-31T21:47:07.773Z,10.60
2017-12-31T21:49:35.305Z,10.60
2017-12-31T21:52:03.611Z,10.80
2017-12-31T21:54:31.127Z,10.70
2017-12-31T21:57:00.179Z,10.80
2017-12-31T21:59:27.718Z,10.80
2017-12-31T22:01:55.264Z,10.90
2017-12-31T22:04:23.548Z,11.00
2017-12-31T22:06:51.083Z,11.00
2017-12-31T22:09:18.617Z,10.90
2017-12-31T22:11:46.168Z,11.00
2017-12-31T22:14:13.723Z,11.20
2017-12-31T22:16:41.253Z,11.10
2017-12-31T22:19:08.785Z,11.20
2017-12-31T22:21:37.087Z,11.00
2017-12-31T22:24:04.602Z,11.00
2017-12-31T22:26:32.535Z,11.10
2017-12-31T22:29:00.082Z,11.30
2017-12-31T22:31:27.626Z,11.20
2017-12-31T22:33:55.180Z,11.20
2017-12-31T22:36:22.732Z,11.20
2017-12-31T22:38:51.255Z,11.20
2017-12-31T22:41:18.785Z,11.20
2017-12-31T22:43:46.588Z,11.10
2017-12-31T22:46:14.443Z,11.20
2017-12-31T22:48:41.973Z,11.20
2017-12-31T22:51:09.508Z,11.20
2017-12-31T22:53:37.805Z,11.30
2017-12-31T22:56:05.339Z,11.30
2017-12-31T22:58:32.871Z,11.40
2017-12-31T23:01:01.183Z,11.60
2017-12-31T23:03:29.469Z,11.60
2017-12-31T23:05:57.052Z,11.60
2017-12-31T23:08:24.585Z,11.60
2017-12-31T23:10:52.871Z,11.60
2017-12-31T23:13:20.407Z,11.60
2017-12-31T23:15:48.691Z,11.50
2017-12-31T23:18:16.988Z,11.50
2017-12-31T23:20:44.537Z,11.50
2017-12-31T23:23:12.051Z,11.50
2017-12-31T23:25:39.586Z,11.40
2017-12-31T23:28:07.135Z,11.40
2017-12-31T23:30:34.681Z,11.40
2017-12-31T23:33:02.202Z,11.30
2017-12-31T23:35:30.526Z,11.30
2017-12-31T23:37:58.101Z,11.30
2017-12-31T23:40:25.632Z,11.40
2017-12-31T23:42:53.175Z,11.30
2017-12-31T23:45:21.459Z,11.30
2017-12-31T23:47:48.978Z,11.30
2017-12-31T23:50:16.536Z,11.30
2017-12-31T23:52:45.573Z,11.30
2017-12-31T23:55:13.111Z,11.30
2017-12-31T23:57:41.537Z,10.30
